Delta Virtual Airport Information Service

Washington Ronald Reagan National Airport

ICAO: KDCA Country: United States
Latitude: 38.8521 Longitude: -77.0377
Latest Arrival : DAL1056 (A) (KLAX-KDCA) Latest Departure : DALJUMP (KDCA-KATL)


WX CaptureLIVE
Data provided by noaa.gov | Fetched at 09:41:32

METAR : KDCA 041452Z 34012G22KT 10SM FEW040 10/M02 A2996 RMK AO2 SLP146 T01001017 50013

TAF : KDCA 041450Z 0415/0518 33013G20KT P6SM FEW100 FM041800 33017G27KT P6SM SCT080 FM050200 33012G22KT P6SM FEW040


Runway Data for KDCA
Data provided by openaviationdata.com

Runway ID Mag Var Hdg Length Elevation Surface ILS Freq ILS Id ILS Slope
1 -10 6875 ft 15 ft Asphalt 109.9 IDCA 3
4 -10 35° 4914 ft 15 ft Asphalt -- -- --
15 -10 152° 5190 ft 15 ft Asphalt -- -- --
19 -10 185° 6875 ft 15 ft Asphalt 109.9 0
22 -10 215° 4914 ft 15 ft Asphalt -- -- --
33 -10 332° 5190 ft 15 ft Asphalt -- -- --

Washington Ronald Reagan National Airport, United States
Use only for reference purposes



Not for navigational purposes.